Terminal Aerodrome Forecast
Issued by NWS

Home | Current Version | Previous Version | Text Only | Print | Product List | Glossary On
Versions: 1 2 3 4 5 6 7 8 9 10 11 12 13 14 15 16 17 18 19 20 21 22 23 24 25 26 27 28 29 30 31 32 33 34 35
000
FTUS45 KPSR 281725
TAFPHX
TAF
KPHX 281725Z 2818/2918 14009KT P6SM FEW150 SCT250
      TEMPO 2818/2821 19006KT
     FM282100 26008KT P6SM SCT250
     FM290800 13005KT P6SM SCT150 BKN250=

USA.gov is the U.S. government's official web portal to all federal, state and local government web resources and services.